<?xml version="1.0" encoding="UTF-8" standalone="no" ?>
<gpx xmlns="http://www.topografix.com/GPX/1/1" xmlns:xsi="http://www.w3.org/2001/XMLSchema-instance" xsi:schemaLocation="http://www.topografix.com/GPX/1/1 http://www.topografix.com/GPX/1/1/gpx.xsd" version="1.1" creator="VisuGPX - https://www.visugpx.com">
  <metadata>
    <name>Joue_VioreauProvostiere_13-24km</name>
    <desc><![CDATA[gnerando idor:6087651_6502859_12533576]]></desc>
  </metadata>
  <trk>
    <name><![CDATA[JoueE_RigoleEtForets_13km-6502859]]></name>
    <extensions>
      <line xmlns="http://www.topografix.com/GPX/gpx_style/0/2">
        <color>00FF00</color>
        <width>4</width>
      </line>
    </extensions>
    <trkseg>
      <trkpt lat="47.52696" lon="-1.41674">
        <ele>35</ele>
        <time>2023-11-02T10:49:04Z</time>
      </trkpt>
      <trkpt lat="47.52852" lon="-1.41603">
        <ele>47</ele>
        <time>2023-11-02T10:52:42Z</time>
      </trkpt>
      <trkpt lat="47.5307" lon="-1.41507">
        <ele>58</ele>
        <time>2023-11-02T10:57:45Z</time>
      </trkpt>
      <trkpt lat="47.53031" lon="-1.41399">
        <ele>63</ele>
        <time>2023-11-02T10:59:36Z</time>
      </trkpt>
      <trkpt lat="47.52943" lon="-1.41157">
        <ele>61</ele>
        <time>2023-11-02T11:03:43Z</time>
      </trkpt>
      <trkpt lat="47.52927" lon="-1.41103">
        <ele>60</ele>
        <time>2023-11-02T11:04:36Z</time>
      </trkpt>
      <trkpt lat="47.52876" lon="-1.40941">
        <ele>57</ele>
        <time>2023-11-02T11:07:17Z</time>
      </trkpt>
      <trkpt lat="47.52882" lon="-1.40907">
        <ele>58</ele>
        <time>2023-11-02T11:07:49Z</time>
      </trkpt>
      <trkpt lat="47.52853" lon="-1.40821">
        <ele>51</ele>
        <time>2023-11-02T11:09:16Z</time>
      </trkpt>
      <trkpt lat="47.52874" lon="-1.40621">
        <ele>52</ele>
        <time>2023-11-02T11:12:18Z</time>
      </trkpt>
      <trkpt lat="47.52859" lon="-1.4026">
        <ele>49</ele>
        <time>2023-11-02T11:17:44Z</time>
      </trkpt>
      <trkpt lat="47.52897" lon="-1.4015">
        <ele>52</ele>
        <time>2023-11-02T11:19:35Z</time>
      </trkpt>
      <trkpt lat="47.52907" lon="-1.40045">
        <ele>52</ele>
        <time>2023-11-02T11:21:11Z</time>
      </trkpt>
      <trkpt lat="47.52955" lon="-1.40006">
        <ele>56</ele>
        <time>2023-11-02T11:22:24Z</time>
      </trkpt>
      <trkpt lat="47.52928" lon="-1.39925">
        <ele>55</ele>
        <time>2023-11-02T11:23:45Z</time>
      </trkpt>
      <trkpt lat="47.52933" lon="-1.39858">
        <ele>58</ele>
        <time>2023-11-02T11:24:46Z</time>
      </trkpt>
      <trkpt lat="47.52964" lon="-1.39725">
        <ele>65</ele>
        <time>2023-11-02T11:26:53Z</time>
      </trkpt>
      <trkpt lat="47.52991" lon="-1.39679">
        <ele>65</ele>
        <time>2023-11-02T11:27:48Z</time>
      </trkpt>
      <trkpt lat="47.53052" lon="-1.39602">
        <ele>62</ele>
        <time>2023-11-02T11:29:35Z</time>
      </trkpt>
      <trkpt lat="47.53067" lon="-1.39569">
        <ele>60</ele>
        <time>2023-11-02T11:30:11Z</time>
      </trkpt>
      <trkpt lat="47.52966" lon="-1.39413">
        <ele>62</ele>
        <time>2023-11-02T11:33:25Z</time>
      </trkpt>
      <trkpt lat="47.5294" lon="-1.39369">
        <ele>66</ele>
        <time>2023-11-02T11:34:18Z</time>
      </trkpt>
      <trkpt lat="47.52957" lon="-1.39162">
        <ele>65</ele>
        <time>2023-11-02T11:37:26Z</time>
      </trkpt>
      <trkpt lat="47.52952" lon="-1.39046">
        <ele>64</ele>
        <time>2023-11-02T11:39:11Z</time>
      </trkpt>
      <trkpt lat="47.52941" lon="-1.38974">
        <ele>60</ele>
        <time>2023-11-02T11:40:17Z</time>
      </trkpt>
      <trkpt lat="47.52942" lon="-1.38946">
        <ele>58</ele>
        <time>2023-11-02T11:40:42Z</time>
      </trkpt>
      <trkpt lat="47.52868" lon="-1.3874">
        <ele>54</ele>
        <time>2023-11-02T11:44:13Z</time>
      </trkpt>
      <trkpt lat="47.52887" lon="-1.38691">
        <ele>55</ele>
        <time>2023-11-02T11:45:04Z</time>
      </trkpt>
      <trkpt lat="47.52938" lon="-1.38645">
        <ele>56</ele>
        <time>2023-11-02T11:46:23Z</time>
      </trkpt>
      <trkpt lat="47.52991" lon="-1.38598">
        <ele>56</ele>
        <time>2023-11-02T11:47:46Z</time>
      </trkpt>
      <trkpt lat="47.52997" lon="-1.38541">
        <ele>55</ele>
        <time>2023-11-02T11:48:38Z</time>
      </trkpt>
      <trkpt lat="47.53056" lon="-1.38562">
        <ele>51</ele>
        <time>2023-11-02T11:49:59Z</time>
      </trkpt>
      <trkpt lat="47.53229" lon="-1.38623">
        <ele>45</ele>
        <time>2023-11-02T11:53:56Z</time>
      </trkpt>
      <trkpt lat="47.53226" lon="-1.38412">
        <ele>43</ele>
        <time>2023-11-02T11:57:06Z</time>
      </trkpt>
      <trkpt lat="47.53222" lon="-1.38217">
        <ele>40</ele>
        <time>2023-11-02T12:00:02Z</time>
      </trkpt>
      <trkpt lat="47.53205" lon="-1.38152">
        <ele>40</ele>
        <time>2023-11-02T12:01:05Z</time>
      </trkpt>
      <trkpt lat="47.53152" lon="-1.3809">
        <ele>40</ele>
        <time>2023-11-02T12:02:35Z</time>
      </trkpt>
      <trkpt lat="47.53089" lon="-1.3798">
        <ele>39</ele>
        <time>2023-11-02T12:04:45Z</time>
      </trkpt>
      <trkpt lat="47.53113" lon="-1.37521">
        <ele>42</ele>
        <time>2023-11-02T12:11:40Z</time>
      </trkpt>
      <trkpt lat="47.53111" lon="-1.37355">
        <ele>46</ele>
        <time>2023-11-02T12:14:09Z</time>
      </trkpt>
      <trkpt lat="47.53111" lon="-1.37222">
        <ele>47</ele>
        <time>2023-11-02T12:16:09Z</time>
      </trkpt>
      <trkpt lat="47.53093" lon="-1.37048">
        <ele>49</ele>
        <time>2023-11-02T12:18:48Z</time>
      </trkpt>
      <trkpt lat="47.53029" lon="-1.36865">
        <ele>50</ele>
        <time>2023-11-02T12:21:53Z</time>
      </trkpt>
      <trkpt lat="47.53035" lon="-1.3685">
        <ele>50</ele>
        <time>2023-11-02T12:22:09Z</time>
      </trkpt>
      <trkpt lat="47.53001" lon="-1.36552">
        <ele>51</ele>
        <time>2023-11-02T12:26:41Z</time>
      </trkpt>
      <trkpt lat="47.52989" lon="-1.36532">
        <ele>52</ele>
        <time>2023-11-02T12:27:05Z</time>
      </trkpt>
      <trkpt lat="47.53116" lon="-1.36245">
        <ele>48</ele>
        <time>2023-11-02T12:32:15Z</time>
      </trkpt>
      <trkpt lat="47.53226" lon="-1.35918">
        <ele>56</ele>
        <time>2023-11-02T12:37:44Z</time>
      </trkpt>
      <trkpt lat="47.53112" lon="-1.35758">
        <ele>51</ele>
        <time>2023-11-02T12:41:13Z</time>
      </trkpt>
      <trkpt lat="47.52949" lon="-1.35594">
        <ele>43</ele>
        <time>2023-11-02T12:45:36Z</time>
      </trkpt>
      <trkpt lat="47.52792" lon="-1.35464">
        <ele>37</ele>
        <time>2023-11-02T12:49:36Z</time>
      </trkpt>
      <trkpt lat="47.52756" lon="-1.35395">
        <ele>37</ele>
        <time>2023-11-02T12:50:55Z</time>
      </trkpt>
      <trkpt lat="47.52745" lon="-1.3535">
        <ele>37</ele>
        <time>2023-11-02T12:51:38Z</time>
      </trkpt>
      <trkpt lat="47.52743" lon="-1.35333">
        <ele>38</ele>
        <time>2023-11-02T12:51:54Z</time>
      </trkpt>
      <trkpt lat="47.52738" lon="-1.35294">
        <ele>37</ele>
        <time>2023-11-02T12:52:29Z</time>
      </trkpt>
      <trkpt lat="47.5269" lon="-1.35163">
        <ele>37</ele>
        <time>2023-11-02T12:54:44Z</time>
      </trkpt>
      <trkpt lat="47.52617" lon="-1.3502">
        <ele>36</ele>
        <time>2023-11-02T12:57:25Z</time>
      </trkpt>
      <trkpt lat="47.52568" lon="-1.34967">
        <ele>36</ele>
        <time>2023-11-02T12:58:46Z</time>
      </trkpt>
      <trkpt lat="47.52554" lon="-1.34882">
        <ele>35</ele>
        <time>2023-11-02T13:00:05Z</time>
      </trkpt>
      <trkpt lat="47.52548" lon="-1.34762">
        <ele>33</ele>
        <time>2023-11-02T13:01:54Z</time>
      </trkpt>
      <trkpt lat="47.52506" lon="-1.34678">
        <ele>32</ele>
        <time>2023-11-02T13:03:28Z</time>
      </trkpt>
      <trkpt lat="47.52444" lon="-1.34766">
        <ele>32</ele>
        <time>2023-11-02T13:05:22Z</time>
      </trkpt>
      <trkpt lat="47.52352" lon="-1.34845">
        <ele>29</ele>
        <time>2023-11-02T13:07:44Z</time>
      </trkpt>
      <trkpt lat="47.5234" lon="-1.34876">
        <ele>30</ele>
        <time>2023-11-02T13:08:16Z</time>
      </trkpt>
      <trkpt lat="47.52258" lon="-1.35326">
        <ele>33</ele>
        <time>2023-11-02T13:15:16Z</time>
      </trkpt>
      <trkpt lat="47.52197" lon="-1.35507">
        <ele>32</ele>
        <time>2023-11-02T13:18:19Z</time>
      </trkpt>
      <trkpt lat="47.522" lon="-1.35532">
        <ele>33</ele>
        <time>2023-11-02T13:18:42Z</time>
      </trkpt>
      <trkpt lat="47.52275" lon="-1.35627">
        <ele>34</ele>
        <time>2023-11-02T13:20:53Z</time>
      </trkpt>
      <trkpt lat="47.52304" lon="-1.35692">
        <ele>32</ele>
        <time>2023-11-02T13:22:04Z</time>
      </trkpt>
      <trkpt lat="47.52303" lon="-1.35769">
        <ele>32</ele>
        <time>2023-11-02T13:23:13Z</time>
      </trkpt>
      <trkpt lat="47.52279" lon="-1.35825">
        <ele>33</ele>
        <time>2023-11-02T13:24:13Z</time>
      </trkpt>
      <trkpt lat="47.52201" lon="-1.35899">
        <ele>30</ele>
        <time>2023-11-02T13:26:16Z</time>
      </trkpt>
      <trkpt lat="47.52164" lon="-1.3597">
        <ele>30</ele>
        <time>2023-11-02T13:27:37Z</time>
      </trkpt>
      <trkpt lat="47.52129" lon="-1.36237">
        <ele>30</ele>
        <time>2023-11-02T13:31:42Z</time>
      </trkpt>
      <trkpt lat="47.52138" lon="-1.36422">
        <ele>31</ele>
        <time>2023-11-02T13:34:29Z</time>
      </trkpt>
      <trkpt lat="47.52148" lon="-1.3645">
        <ele>31</ele>
        <time>2023-11-02T13:34:58Z</time>
      </trkpt>
      <trkpt lat="47.52192" lon="-1.36512">
        <ele>33</ele>
        <time>2023-11-02T13:36:19Z</time>
      </trkpt>
      <trkpt lat="47.52184" lon="-1.36543">
        <ele>33</ele>
        <time>2023-11-02T13:36:49Z</time>
      </trkpt>
      <trkpt lat="47.52133" lon="-1.36656">
        <ele>30</ele>
        <time>2023-11-02T13:38:51Z</time>
      </trkpt>
      <trkpt lat="47.52137" lon="-1.36931">
        <ele>30</ele>
        <time>2023-11-02T13:42:59Z</time>
      </trkpt>
      <trkpt lat="47.52111" lon="-1.36992">
        <ele>29</ele>
        <time>2023-11-02T13:44:04Z</time>
      </trkpt>
      <trkpt lat="47.52103" lon="-1.3711">
        <ele>32</ele>
        <time>2023-11-02T13:45:51Z</time>
      </trkpt>
      <trkpt lat="47.52103" lon="-1.37271">
        <ele>34</ele>
        <time>2023-11-02T13:48:16Z</time>
      </trkpt>
      <trkpt lat="47.52211" lon="-1.37331">
        <ele>36</ele>
        <time>2023-11-02T13:50:50Z</time>
      </trkpt>
      <trkpt lat="47.52268" lon="-1.37349">
        <ele>36</ele>
        <time>2023-11-02T13:52:08Z</time>
      </trkpt>
      <trkpt lat="47.52372" lon="-1.3739">
        <ele>40</ele>
        <time>2023-11-02T13:54:32Z</time>
      </trkpt>
      <trkpt lat="47.52402" lon="-1.37417">
        <ele>41</ele>
        <time>2023-11-02T13:55:18Z</time>
      </trkpt>
      <trkpt lat="47.52419" lon="-1.37643">
        <ele>44</ele>
        <time>2023-11-02T13:58:43Z</time>
      </trkpt>
      <trkpt lat="47.52424" lon="-1.37905">
        <ele>43</ele>
        <time>2023-11-02T14:02:40Z</time>
      </trkpt>
      <trkpt lat="47.52424" lon="-1.37996">
        <ele>42</ele>
        <time>2023-11-02T14:04:02Z</time>
      </trkpt>
      <trkpt lat="47.5243" lon="-1.3821">
        <ele>41</ele>
        <time>2023-11-02T14:07:15Z</time>
      </trkpt>
      <trkpt lat="47.52441" lon="-1.38419">
        <ele>39</ele>
        <time>2023-11-02T14:10:23Z</time>
      </trkpt>
      <trkpt lat="47.52441" lon="-1.38451">
        <ele>38</ele>
        <time>2023-11-02T14:10:52Z</time>
      </trkpt>
      <trkpt lat="47.52462" lon="-1.38521">
        <ele>37</ele>
        <time>2023-11-02T14:12:01Z</time>
      </trkpt>
      <trkpt lat="47.5249" lon="-1.38565">
        <ele>37</ele>
        <time>2023-11-02T14:12:56Z</time>
      </trkpt>
      <trkpt lat="47.52529" lon="-1.38594">
        <ele>38</ele>
        <time>2023-11-02T14:13:54Z</time>
      </trkpt>
      <trkpt lat="47.52571" lon="-1.38595">
        <ele>40</ele>
        <time>2023-11-02T14:14:50Z</time>
      </trkpt>
      <trkpt lat="47.52587" lon="-1.38623">
        <ele>41</ele>
        <time>2023-11-02T14:15:23Z</time>
      </trkpt>
      <trkpt lat="47.52592" lon="-1.38653">
        <ele>42</ele>
        <time>2023-11-02T14:15:51Z</time>
      </trkpt>
      <trkpt lat="47.52575" lon="-1.38705">
        <ele>42</ele>
        <time>2023-11-02T14:16:43Z</time>
      </trkpt>
      <trkpt lat="47.52542" lon="-1.38741">
        <ele>40</ele>
        <time>2023-11-02T14:17:38Z</time>
      </trkpt>
      <trkpt lat="47.5253" lon="-1.38796">
        <ele>41</ele>
        <time>2023-11-02T14:18:30Z</time>
      </trkpt>
      <trkpt lat="47.52493" lon="-1.39025">
        <ele>37</ele>
        <time>2023-11-02T14:22:02Z</time>
      </trkpt>
      <trkpt lat="47.52474" lon="-1.39146">
        <ele>38</ele>
        <time>2023-11-02T14:23:54Z</time>
      </trkpt>
      <trkpt lat="47.52462" lon="-1.39193">
        <ele>37</ele>
        <time>2023-11-02T14:24:39Z</time>
      </trkpt>
      <trkpt lat="47.5234" lon="-1.39324">
        <ele>33</ele>
        <time>2023-11-02T14:28:00Z</time>
      </trkpt>
      <trkpt lat="47.52306" lon="-1.39587">
        <ele>33</ele>
        <time>2023-11-02T14:32:02Z</time>
      </trkpt>
      <trkpt lat="47.52338" lon="-1.39593">
        <ele>33</ele>
        <time>2023-11-02T14:32:45Z</time>
      </trkpt>
      <trkpt lat="47.5238" lon="-1.39606">
        <ele>35</ele>
        <time>2023-11-02T14:33:42Z</time>
      </trkpt>
      <trkpt lat="47.52364" lon="-1.39675">
        <ele>35</ele>
        <time>2023-11-02T14:34:48Z</time>
      </trkpt>
      <trkpt lat="47.52355" lon="-1.3974">
        <ele>34</ele>
        <time>2023-11-02T14:35:47Z</time>
      </trkpt>
      <trkpt lat="47.52348" lon="-1.39801">
        <ele>33</ele>
        <time>2023-11-02T14:36:43Z</time>
      </trkpt>
      <trkpt lat="47.52348" lon="-1.39848">
        <ele>32</ele>
        <time>2023-11-02T14:37:26Z</time>
      </trkpt>
      <trkpt lat="47.52345" lon="-1.39883">
        <ele>32</ele>
        <time>2023-11-02T14:37:57Z</time>
      </trkpt>
      <trkpt lat="47.52346" lon="-1.39921">
        <ele>31</ele>
        <time>2023-11-02T14:38:32Z</time>
      </trkpt>
      <trkpt lat="47.52378" lon="-1.39959">
        <ele>32</ele>
        <time>2023-11-02T14:39:26Z</time>
      </trkpt>
      <trkpt lat="47.52425" lon="-1.40005">
        <ele>33</ele>
        <time>2023-11-02T14:40:42Z</time>
      </trkpt>
      <trkpt lat="47.52457" lon="-1.40097">
        <ele>33</ele>
        <time>2023-11-02T14:42:15Z</time>
      </trkpt>
      <trkpt lat="47.52463" lon="-1.40153">
        <ele>32</ele>
        <time>2023-11-02T14:43:06Z</time>
      </trkpt>
      <trkpt lat="47.52477" lon="-1.40222">
        <ele>32</ele>
        <time>2023-11-02T14:44:11Z</time>
      </trkpt>
      <trkpt lat="47.52491" lon="-1.40278">
        <ele>33</ele>
        <time>2023-11-02T14:45:05Z</time>
      </trkpt>
      <trkpt lat="47.52491" lon="-1.40306">
        <ele>34</ele>
        <time>2023-11-02T14:45:30Z</time>
      </trkpt>
      <trkpt lat="47.5248" lon="-1.40331">
        <ele>35</ele>
        <time>2023-11-02T14:45:57Z</time>
      </trkpt>
      <trkpt lat="47.52502" lon="-1.40469">
        <ele>35</ele>
        <time>2023-11-02T14:48:05Z</time>
      </trkpt>
      <trkpt lat="47.52531" lon="-1.40538">
        <ele>34</ele>
        <time>2023-11-02T14:49:18Z</time>
      </trkpt>
      <trkpt lat="47.52576" lon="-1.40551">
        <ele>35</ele>
        <time>2023-11-02T14:50:19Z</time>
      </trkpt>
      <trkpt lat="47.52556" lon="-1.40609">
        <ele>34</ele>
        <time>2023-11-02T14:51:18Z</time>
      </trkpt>
      <trkpt lat="47.52621" lon="-1.40697">
        <ele>35</ele>
        <time>2023-11-02T14:53:15Z</time>
      </trkpt>
      <trkpt lat="47.52631" lon="-1.40734">
        <ele>34</ele>
        <time>2023-11-02T14:53:51Z</time>
      </trkpt>
      <trkpt lat="47.52613" lon="-1.40812">
        <ele>35</ele>
        <time>2023-11-02T14:55:05Z</time>
      </trkpt>
      <trkpt lat="47.52607" lon="-1.40956">
        <ele>35</ele>
        <time>2023-11-02T14:57:15Z</time>
      </trkpt>
      <trkpt lat="47.52619" lon="-1.40984">
        <ele>34</ele>
        <time>2023-11-02T14:57:45Z</time>
      </trkpt>
      <trkpt lat="47.52641" lon="-1.41085">
        <ele>33</ele>
        <time>2023-11-02T14:59:21Z</time>
      </trkpt>
      <trkpt lat="47.52656" lon="-1.41091">
        <ele>34</ele>
        <time>2023-11-02T14:59:42Z</time>
      </trkpt>
      <trkpt lat="47.52677" lon="-1.41158">
        <ele>37</ele>
        <time>2023-11-02T15:00:48Z</time>
      </trkpt>
      <trkpt lat="47.5269" lon="-1.41217">
        <ele>39</ele>
        <time>2023-11-02T15:01:44Z</time>
      </trkpt>
      <trkpt lat="47.52683" lon="-1.41243">
        <ele>38</ele>
        <time>2023-11-02T15:02:09Z</time>
      </trkpt>
      <trkpt lat="47.52683" lon="-1.4133">
        <ele>38</ele>
        <time>2023-11-02T15:03:28Z</time>
      </trkpt>
      <trkpt lat="47.52674" lon="-1.41409">
        <ele>36</ele>
        <time>2023-11-02T15:04:40Z</time>
      </trkpt>
      <trkpt lat="47.52677" lon="-1.41636">
        <ele>34</ele>
        <time>2023-11-02T15:08:04Z</time>
      </trkpt>
      <trkpt lat="47.52696" lon="-1.41674">
        <ele>35</ele>
        <time>2023-11-02T15:08:47Z</time>
      </trkpt>
    </trkseg>
  </trk>
</gpx>